Time;durP1;ratioP1;P1;durP2;ratioP2;P2;SDS_P1;SDS_P2;PMS_P1;PMS_P2;Temp;Humidity;BMP_temperature;BMP_pressure;BME280_temperature;BME280_humidity;BME280_pressure;Samples;Min_cycle;Max_cycle;Signal;HPM_P1;HPM_P2
2022/03/04 00:00:11;;;;;;;42.90;20.53;;;0.90;99.90;;;;;;4190844;28;20350;-63
2022/03/04 00:02:12;;;;;;;35.03;19.80;;;0.90;99.90;;;;;;4191836;28;20664;-57
2022/03/04 00:04:14;;;;;;;45.20;21.87;;;0.90;99.90;;;;;;4190580;28;20753;-67
2022/03/04 00:06:15;;;;;;;41.83;19.43;;;0.90;99.90;;;;;;4191950;28;20419;-64
2022/03/04 00:08:16;;;;;;;38.33;19.07;;;0.90;99.90;;;;;;4189996;28;20297;-55
2022/03/04 00:10:17;;;;;;;41.23;18.97;;;0.90;99.90;;;;;;4187709;28;20281;-55
2022/03/04 00:12:19;;;;;;;38.40;18.37;;;0.90;99.90;;;;;;4182920;28;20753;-83
2022/03/04 00:14:21;;;;;;;43.90;18.10;;;1.00;99.90;;;;;;4177818;28;20335;-83
2022/03/04 00:16:22;;;;;;;35.30;18.30;;;1.00;99.90;;;;;;4190488;28;20807;-67
2022/03/04 00:18:23;;;;;;;37.27;17.47;;;1.00;99.90;;;;;;4159219;28;20282;-63
2022/03/04 00:20:25;;;;;;;35.50;17.23;;;1.10;99.90;;;;;;4174183;28;20619;-69
2022/03/04 00:22:26;;;;;;;40.40;19.03;;;1.10;99.90;;;;;;4180247;28;20355;-60
2022/03/04 00:24:27;;;;;;;33.27;17.83;;;1.10;99.90;;;;;;4190469;28;20645;-74
2022/03/04 00:28:39;;;;;;;;;;;1.20;99.90;;;;;;4232141;22;20865;-64
2022/03/04 00:30:40;;;;;;;;;;;1.20;99.90;;;;;;4206879;28;19912;-49
2022/03/04 00:32:41;;;;;;;87.68;33.88;;;1.20;99.90;;;;;;4207637;28;19951;-47
2022/03/04 00:34:42;;;;;;;70.90;29.90;;;1.20;99.90;;;;;;4206303;28;20036;-75
2022/03/04 00:36:43;;;;;;;114.13;37.80;;;1.30;99.90;;;;;;4207626;28;20264;-52
2022/03/04 00:38:44;;;;;;;100.63;34.30;;;1.30;99.90;;;;;;4206394;28;20274;-55
2022/03/04 00:40:45;;;;;;;107.43;39.20;;;1.30;99.90;;;;;;4206232;28;20341;-71
2022/03/04 00:42:47;;;;;;;60.93;28.00;;;1.30;99.90;;;;;;4207007;28;20354;-63
2022/03/04 00:44:48;;;;;;;73.13;29.37;;;1.30;99.90;;;;;;4207324;28;20256;-70
2022/03/04 00:46:49;;;;;;;61.33;29.33;;;1.30;99.90;;;;;;4206037;28;20333;-70
2022/03/04 00:48:50;;;;;;;40.67;19.70;;;1.30;99.90;;;;;;4206095;28;20785;-61
2022/03/04 00:50:51;;;;;;;42.07;21.07;;;1.30;99.90;;;;;;4207547;28;20329;-45
2022/03/04 00:52:53;;;;;;;38.60;20.10;;;1.40;99.90;;;;;;4206507;28;20268;-68
2022/03/04 00:54:54;;;;;;;43.77;22.33;;;1.40;99.90;;;;;;4207413;28;20322;-64
2022/03/04 00:56:55;;;;;;;44.70;21.07;;;1.40;99.90;;;;;;4206938;28;20345;-55
2022/03/04 00:58:56;;;;;;;41.60;19.63;;;1.40;99.90;;;;;;4207603;28;20284;-57
2022/03/04 01:00:57;;;;;;;40.17;19.23;;;1.40;99.90;;;;;;4206376;28;20365;-59
2022/03/04 01:02:59;;;;;;;37.23;18.43;;;1.40;99.90;;;;;;4205944;28;20314;-68
2022/03/04 01:05:00;;;;;;;39.10;19.20;;;1.40;99.90;;;;;;4206508;28;20280;-62
2022/03/04 01:07:01;;;;;;;36.00;17.27;;;1.50;99.90;;;;;;4206167;28;20346;-69
2022/03/04 01:09:03;;;;;;;38.97;18.27;;;1.50;99.90;;;;;;4209478;28;20276;-68
2022/03/04 01:11:04;;;;;;;36.80;18.83;;;1.50;99.90;;;;;;4209279;28;20302;-60
2022/03/04 01:13:05;;;;;;;39.83;20.50;;;1.50;99.90;;;;;;4208019;28;20342;-70
2022/03/04 01:15:07;;;;;;;45.17;21.10;;;1.50;99.90;;;;;;4207478;28;20805;-59
2022/03/04 01:17:08;;;;;;;44.07;20.00;;;1.50;99.90;;;;;;4206385;28;20318;-64
2022/03/04 01:19:10;;;;;;;40.40;19.23;;;1.50;99.90;;;;;;4207525;28;20369;-58
2022/03/04 01:21:11;;;;;;;41.23;18.87;;;1.50;99.90;;;;;;4206841;28;20995;-68
2022/03/04 01:23:14;;;;;;;39.13;20.13;;;1.60;99.90;;;;;;4206625;28;20381;-69
2022/03/04 01:25:15;;;;;;;41.00;18.63;;;1.60;99.90;;;;;;4207324;28;20268;-75
2022/03/04 01:27:16;;;;;;;37.10;18.63;;;1.60;99.90;;;;;;4206066;28;20293;-51
2022/03/04 01:29:17;;;;;;;39.63;18.40;;;1.60;99.90;;;;;;4208360;28;20268;-68
2022/03/04 01:31:19;;;;;;;35.17;18.33;;;1.50;99.90;;;;;;4205699;28;20269;-66
2022/03/04 01:33:20;;;;;;;37.70;18.77;;;1.50;99.90;;;;;;4207754;28;20325;-85
2022/03/04 01:35:21;;;;;;;47.73;20.77;;;1.50;99.90;;;;;;4205570;28;20276;-72
2022/03/04 01:37:22;;;;;;;38.83;19.73;;;1.50;99.90;;;;;;4207552;28;20330;-54
2022/03/04 01:39:23;;;;;;;41.83;20.97;;;1.50;99.90;;;;;;4205960;28;20257;-70
2022/03/04 01:41:25;;;;;;;41.63;21.93;;;1.50;99.90;;;;;;4564503;22;20703;-47
2022/03/04 01:43:26;;;;;;;50.87;22.90;;;1.40;99.90;;;;;;4206825;28;20261;-61
2022/03/04 01:45:27;;;;;;;42.47;20.80;;;1.40;99.90;;;;;;4187695;28;20261;-50
2022/03/04 01:47:28;;;;;;;44.77;21.13;;;1.40;99.90;;;;;;4205291;28;20731;-66
2022/03/04 01:49:30;;;;;;;42.23;19.20;;;1.40;99.90;;;;;;4195541;28;20289;-87
2022/03/04 01:51:31;;;;;;;35.80;17.90;;;1.40;99.90;;;;;;4192286;28;20689;-54
2022/03/04 01:53:32;;;;;;;37.40;19.30;;;1.40;99.90;;;;;;4191634;28;20338;-46
2022/03/04 01:55:33;;;;;;;37.00;19.17;;;1.40;99.90;;;;;;4191945;28;20348;-45
2022/03/04 01:57:36;;;;;;;39.57;19.00;;;1.50;99.90;;;;;;4190336;28;20273;-49
2022/03/04 01:59:37;;;;;;;34.60;17.77;;;1.50;99.90;;;;;;4204923;28;20285;-67
2022/03/04 02:01:38;;;;;;;36.13;17.13;;;1.50;99.90;;;;;;4205216;28;20341;-52
2022/03/04 02:03:39;;;;;;;39.83;16.87;;;1.50;99.90;;;;;;4206460;28;20269;-80
2022/03/04 02:05:40;;;;;;;31.10;15.03;;;1.50;99.90;;;;;;4190959;28;20362;-63
2022/03/04 02:07:42;;;;;;;35.10;16.80;;;1.60;99.90;;;;;;4189669;28;20314;-66
2022/03/04 02:09:43;;;;;;;32.10;15.27;;;1.60;99.90;;;;;;4190165;28;20755;-80
2022/03/04 02:11:45;;;;;;;32.63;16.37;;;1.70;99.90;;;;;;4206282;28;20326;-54
2022/03/04 02:13:47;;;;;;;29.43;16.37;;;1.70;99.90;;;;;;4205070;28;20763;-70
2022/03/04 02:15:48;;;;;;;32.77;17.10;;;1.70;99.90;;;;;;4206221;28;20276;-65
2022/03/04 02:17:49;;;;;;;27.07;14.80;;;1.70;99.90;;;;;;4206424;28;20306;-63
2022/03/04 02:19:53;;;;;;;30.00;14.50;;;1.70;99.90;;;;;;4206154;28;20256;-62
2022/03/04 02:22:02;;;;;;;37.80;15.83;;;1.70;99.90;;;;;;4192457;28;20289;-54
2022/03/04 02:24:04;;;;;;;31.77;15.97;;;1.70;99.90;;;;;;4189316;28;20277;-56
2022/03/04 02:26:06;;;;;;;33.23;16.60;;;1.70;99.90;;;;;;4189861;28;20273;-54
2022/03/04 02:28:07;;;;;;;26.83;14.73;;;1.70;99.90;;;;;;4189555;28;20311;-64
2022/03/04 02:30:09;;;;;;;34.13;16.07;;;1.70;99.90;;;;;;4190259;28;20710;-53
2022/03/04 02:32:10;;;;;;;27.00;14.47;;;1.70;99.90;;;;;;4189809;28;20362;-52
2022/03/04 02:34:12;;;;;;;24.73;14.13;;;1.70;99.90;;;;;;4192944;28;20722;-54
2022/03/04 02:36:14;;;;;;;28.90;15.50;;;1.70;99.90;;;;;;4193535;28;20273;-71
2022/03/04 02:38:15;;;;;;;30.27;15.93;;;1.70;99.90;;;;;;4190005;28;20273;-49
2022/03/04 02:40:16;;;;;;;31.53;15.63;;;1.70;99.90;;;;;;4188989;28;20343;-64
2022/03/04 02:42:17;;;;;;;39.57;17.50;;;1.60;99.90;;;;;;4190734;28;20289;-64
2022/03/04 02:44:18;;;;;;;33.57;16.07;;;1.60;99.90;;;;;;4189859;28;20840;-61
2022/03/04 02:46:19;;;;;;;37.37;19.40;;;1.60;99.90;;;;;;4189372;28;20261;-64
2022/03/04 02:48:20;;;;;;;35.27;16.40;;;1.70;99.90;;;;;;4190126;28;20342;-74
2022/03/04 02:50:22;;;;;;;30.27;16.43;;;1.60;99.90;;;;;;4189330;28;20327;-51
2022/03/04 02:52:23;;;;;;;32.03;15.30;;;1.70;99.90;;;;;;4192970;28;20761;-69
2022/03/04 02:54:24;;;;;;;31.53;15.60;;;1.70;99.90;;;;;;4195695;28;20306;-75
2022/03/04 02:56:25;;;;;;;33.33;15.20;;;1.70;99.90;;;;;;4230581;22;20351;-60
2022/03/04 02:58:26;;;;;;;31.50;16.33;;;1.70;99.90;;;;;;4192238;28;20339;-56
2022/03/04 03:00:28;;;;;;;29.13;14.80;;;1.70;99.90;;;;;;4185139;28;20398;-67
2022/03/04 03:02:29;;;;;;;27.47;14.23;;;1.60;99.90;;;;;;4191586;28;20296;-55
2022/03/04 03:04:30;;;;;;;29.03;14.17;;;1.60;99.90;;;;;;4193147;28;20273;-59
2022/03/04 03:06:31;;;;;;;31.63;14.60;;;1.60;99.90;;;;;;4190838;28;20261;-54
2022/03/04 03:10:43;;;;;;;;;;;1.70;99.90;;;;;;4195322;26;20304;-59
2022/03/04 03:12:44;;;;;;;;;;;1.70;99.90;;;;;;4209182;28;20291;-64
2022/03/04 03:14:45;;;;;;;24.17;12.20;;;1.70;99.90;;;;;;4210147;28;19907;-52
2022/03/04 03:16:46;;;;;;;27.83;13.33;;;1.70;99.90;;;;;;4208024;28;20069;-42
2022/03/04 03:20:58;;;;;;;;;;;1.70;99.90;;;;;;4371630;22;21826;-57
2022/03/04 03:22:59;;;;;;;;;;;1.70;99.90;;;;;;4175465;28;19974;-62
2022/03/04 03:25:00;;;;;;;27.55;13.57;;;1.70;99.90;;;;;;4175590;28;19916;-61
2022/03/04 03:27:01;;;;;;;26.37;14.63;;;1.70;99.90;;;;;;4175467;28;20066;-51
2022/03/04 03:29:02;;;;;;;30.23;16.13;;;1.70;99.90;;;;;;4167449;28;20317;-65
2022/03/04 03:31:04;;;;;;;29.80;15.27;;;1.70;99.90;;;;;;4158197;28;20270;-58
2022/03/04 03:33:05;;;;;;;28.60;14.80;;;1.70;99.90;;;;;;4159077;28;21171;-67
2022/03/04 03:35:08;;;;;;;27.73;15.10;;;1.70;99.90;;;;;;4242695;22;20310;-63
2022/03/04 03:37:09;;;;;;;31.10;15.40;;;1.70;99.90;;;;;;4174858;28;20366;-46
2022/03/04 03:39:10;;;;;;;35.77;17.20;;;1.70;99.90;;;;;;4176111;28;20266;-67
2022/03/04 03:41:12;;;;;;;28.70;14.37;;;1.70;99.90;;;;;;4172929;28;20298;-68
2022/03/04 03:43:13;;;;;;;34.00;15.60;;;1.60;99.90;;;;;;4159420;28;20267;-62
2022/03/04 03:45:15;;;;;;;31.10;14.77;;;1.70;99.90;;;;;;4158427;28;20773;-78
2022/03/04 03:47:16;;;;;;;40.77;17.40;;;1.60;99.90;;;;;;4159055;28;20271;-51
2022/03/04 03:49:17;;;;;;;43.47;18.33;;;1.60;99.90;;;;;;4159533;28;20793;-61
2022/03/04 03:51:18;;;;;;;39.63;15.53;;;1.60;99.90;;;;;;4159733;28;20670;-59
2022/03/04 03:53:19;;;;;;;37.77;17.47;;;1.60;99.90;;;;;;4158657;28;20255;-64
2022/03/04 03:55:21;;;;;;;33.60;15.73;;;1.60;99.90;;;;;;4158147;28;20262;-63
2022/03/04 03:57:22;;;;;;;33.67;16.03;;;1.60;99.90;;;;;;4158623;28;20304;-63
2022/03/04 03:59:23;;;;;;;32.80;16.93;;;1.60;99.90;;;;;;4157899;28;20601;-66
2022/03/04 04:01:25;;;;;;;35.30;15.57;;;1.60;99.90;;;;;;4158956;28;20361;-67
2022/03/04 04:03:26;;;;;;;30.80;15.13;;;1.60;99.90;;;;;;4164568;28;21093;-72
2022/03/04 04:05:28;;;;;;;29.13;14.67;;;1.60;99.90;;;;;;4174549;28;20278;-62
2022/03/04 04:07:29;;;;;;;31.33;15.13;;;1.60;99.90;;;;;;4173887;28;20673;-44
2022/03/04 04:09:30;;;;;;;30.17;15.33;;;1.60;99.90;;;;;;4175827;28;20270;-58
2022/03/04 04:11:35;;;;;;;31.20;15.13;;;1.70;99.90;;;;;;4164232;28;20297;-61
2022/03/04 04:13:36;;;;;;;25.23;12.90;;;1.70;99.90;;;;;;4159105;28;20278;-63
2022/03/04 04:15:38;;;;;;;24.27;13.23;;;1.70;99.90;;;;;;4157929;28;20270;-63
2022/03/04 04:17:39;;;;;;;27.17;13.47;;;1.60;99.90;;;;;;4159061;28;20267;-56
2022/03/04 04:19:41;;;;;;;31.07;14.73;;;1.60;99.90;;;;;;4157366;28;20271;-70
2022/03/04 04:21:42;;;;;;;29.17;14.23;;;1.60;99.90;;;;;;4159368;28;20349;-65
2022/03/04 04:23:43;;;;;;;26.83;13.33;;;1.60;99.90;;;;;;4158256;28;20263;-60
2022/03/04 04:25:44;;;;;;;33.17;14.67;;;1.50;99.90;;;;;;4163768;28;20392;-70
2022/03/04 04:27:45;;;;;;;30.47;14.97;;;1.50;99.90;;;;;;4152341;28;20283;-71
2022/03/04 04:29:46;;;;;;;35.50;16.60;;;1.40;99.90;;;;;;4172160;28;20281;-68
2022/03/04 04:31:48;;;;;;;29.90;15.77;;;1.40;99.90;;;;;;4174718;28;20296;-56
2022/03/04 04:33:49;;;;;;;26.27;15.37;;;1.40;99.90;;;;;;4173671;28;20282;-56
2022/03/04 04:35:50;;;;;;;31.33;16.17;;;1.30;99.90;;;;;;4174722;28;20265;-73
2022/03/04 04:37:52;;;;;;;30.53;15.43;;;1.30;99.90;;;;;;4173511;28;20258;-64
2022/03/04 04:39:53;;;;;;;35.73;16.60;;;1.30;99.90;;;;;;4156683;28;20267;-66
2022/03/04 04:41:54;;;;;;;33.70;14.73;;;1.20;99.90;;;;;;4174405;28;20293;-66
2022/03/04 04:43:55;;;;;;;32.13;15.40;;;1.20;99.90;;;;;;4175111;28;20289;-75
2022/03/04 04:45:56;;;;;;;31.70;15.83;;;1.20;99.90;;;;;;4173770;28;20262;-74
2022/03/04 04:47:58;;;;;;;31.60;15.83;;;1.10;99.90;;;;;;4156103;28;20291;-60
2022/03/04 04:49:59;;;;;;;35.10;16.83;;;1.10;99.90;;;;;;4173250;28;20281;-63
2022/03/04 04:52:00;;;;;;;33.90;16.73;;;1.10;99.90;;;;;;4173963;28;20332;-52
2022/03/04 04:54:01;;;;;;;30.97;15.90;;;1.00;99.90;;;;;;4173796;28;20681;-56
2022/03/04 04:56:03;;;;;;;34.93;16.90;;;1.00;99.90;;;;;;4172392;28;20856;-63
2022/03/04 04:58:04;;;;;;;32.07;17.50;;;1.00;99.90;;;;;;4174097;28;20315;-68
2022/03/04 05:00:06;;;;;;;37.13;17.97;;;0.90;99.90;;;;;;4173793;28;20266;-69
2022/03/04 05:02:07;;;;;;;31.43;16.20;;;1.00;99.90;;;;;;4173965;28;20351;-65
2022/03/04 05:04:09;;;;;;;31.83;15.87;;;1.00;99.90;;;;;;4170215;28;22057;-82
2022/03/04 05:06:10;;;;;;;33.63;15.80;;;1.00;99.90;;;;;;4163030;28;20926;-56
2022/03/04 05:08:11;;;;;;;38.33;18.53;;;1.00;99.90;;;;;;4165160;28;20767;-70
2022/03/04 05:12:23;;;;;;;;;;;1.00;99.90;;;;;;4233438;22;20796;-62
2022/03/04 05:14:24;;;;;;;;;;;1.00;99.90;;;;;;4198991;22;19986;-55
2022/03/04 05:16:25;;;;;;;34.05;16.13;;;1.00;99.90;;;;;;4167668;28;19960;-75
2022/03/04 05:18:26;;;;;;;35.33;17.73;;;1.10;99.90;;;;;;4164895;28;20102;-68
2022/03/04 05:20:27;;;;;;;36.87;18.13;;;1.10;99.90;;;;;;4172987;28;20368;-78
2022/03/04 05:22:29;;;;;;;36.03;20.43;;;1.00;99.90;;;;;;4172582;28;20363;-72
2022/03/04 05:24:30;;;;;;;41.00;19.47;;;1.10;99.90;;;;;;4171792;28;20744;-62
2022/03/04 05:26:35;;;;;;;42.73;21.73;;;1.10;99.90;;;;;;4171435;28;20270;-69
2022/03/04 05:28:36;;;;;;;34.43;19.00;;;1.10;99.90;;;;;;4172658;28;20258;-64
2022/03/04 05:30:37;;;;;;;43.70;20.73;;;1.10;99.90;;;;;;4172022;28;20693;-67
2022/03/04 05:32:38;;;;;;;39.57;20.90;;;1.10;99.90;;;;;;4170018;28;20259;-55
2022/03/04 05:34:41;;;;;;;44.97;22.40;;;1.10;99.90;;;;;;4241241;22;20351;-73
2022/03/04 05:36:42;;;;;;;45.10;20.47;;;1.20;99.90;;;;;;4171482;28;20331;-68
2022/03/04 05:38:43;;;;;;;42.83;20.60;;;1.10;99.90;;;;;;4173421;28;20319;-73
2022/03/04 05:40:44;;;;;;;39.63;19.37;;;1.20;99.90;;;;;;4170770;28;20282;-78
2022/03/04 05:42:45;;;;;;;38.43;19.87;;;1.20;99.90;;;;;;4172019;28;20364;-66
2022/03/04 05:44:47;;;;;;;38.13;19.70;;;1.20;99.90;;;;;;4171030;28;20286;-68
2022/03/04 05:46:48;;;;;;;37.90;18.30;;;1.20;99.90;;;;;;4172416;28;20270;-59
2022/03/04 05:48:49;;;;;;;37.33;19.43;;;1.10;99.90;;;;;;4172271;28;20343;-55
2022/03/04 05:50:50;;;;;;;40.73;19.87;;;1.10;99.90;;;;;;4139983;28;20313;-68
2022/03/04 05:52:52;;;;;;;38.87;19.40;;;1.10;99.90;;;;;;4165857;28;20272;-65
2022/03/04 05:54:53;;;;;;;41.50;18.83;;;1.10;99.90;;;;;;4163192;28;20721;-44
2022/03/04 05:56:54;;;;;;;38.40;18.73;;;1.10;99.90;;;;;;4173140;28;20278;-57
2022/03/04 05:58:55;;;;;;;41.77;20.00;;;1.20;99.90;;;;;;4173499;28;20344;-68
2022/03/04 06:00:57;;;;;;;40.40;20.33;;;1.20;99.90;;;;;;4174506;28;20714;-81
2022/03/04 06:02:58;;;;;;;39.70;19.83;;;1.20;99.90;;;;;;4173177;28;20359;-88
2022/03/04 06:04:59;;;;;;;40.17;21.47;;;1.30;99.90;;;;;;4174823;28;20666;-52
2022/03/04 06:07:00;;;;;;;40.83;22.57;;;1.30;99.90;;;;;;4174134;28;20278;-85
2022/03/04 06:09:02;;;;;;;43.77;21.63;;;1.30;99.90;;;;;;4175070;28;20271;-70
2022/03/04 06:11:03;;;;;;;42.03;22.37;;;1.30;99.90;;;;;;4164120;28;21242;-58
2022/03/04 06:13:04;;;;;;;44.03;22.43;;;1.40;99.90;;;;;;4158363;28;20279;-71
2022/03/04 06:15:06;;;;;;;49.07;23.50;;;1.30;99.90;;;;;;4156711;28;20278;-56
2022/03/04 06:17:07;;;;;;;50.50;23.83;;;1.30;99.90;;;;;;4158066;28;20266;-68
2022/03/04 06:19:08;;;;;;;45.73;23.13;;;1.30;99.90;;;;;;4138321;28;20279;-68
2022/03/04 06:21:09;;;;;;;48.83;24.10;;;1.40;99.90;;;;;;4157432;28;20270;-69
2022/03/04 06:23:11;;;;;;;44.07;22.03;;;1.40;99.90;;;;;;4157621;28;20417;-73
2022/03/04 06:25:16;;;;;;;42.63;20.10;;;1.40;99.90;;;;;;4156376;28;20329;-56
2022/03/04 06:27:17;;;;;;;37.70;20.50;;;1.30;99.90;;;;;;4162193;28;20660;-68
2022/03/04 06:29:18;;;;;;;92.60;38.43;;;1.30;99.90;;;;;;4177224;28;21135;-81
2022/03/04 06:31:19;;;;;;;182.20;70.77;;;1.40;99.90;;;;;;4177668;28;20284;-71
2022/03/04 06:33:30;;;;;;;166.47;65.87;;;1.30;99.90;;;;;;4176570;28;20270;-75
2022/03/04 06:35:31;;;;;;;223.10;104.47;;;1.40;99.90;;;;;;4178192;28;20814;-84
2022/03/04 06:37:32;;;;;;;306.47;151.97;;;1.40;99.90;;;;;;4176188;28;20037;-60
2022/03/04 06:39:33;;;;;;;245.40;128.07;;;1.40;99.90;;;;;;4177629;28;20792;-89
2022/03/04 06:41:34;;;;;;;186.97;97.50;;;1.40;99.90;;;;;;4176349;28;20292;-62
2022/03/04 06:43:35;;;;;;;105.23;58.13;;;1.50;99.90;;;;;;4177925;28;20315;-65
2022/03/04 06:45:40;;;;;;;100.30;56.80;;;1.50;99.90;;;;;;4176817;28;20270;-69
2022/03/04 06:47:41;;;;;;;65.53;36.23;;;1.50;99.90;;;;;;4176591;28;20297;-50
2022/03/04 06:49:42;;;;;;;55.43;29.70;;;1.50;99.90;;;;;;4176204;28;20266;-59
2022/03/04 06:51:43;;;;;;;47.63;24.00;;;1.60;99.90;;;;;;4177320;28;20305;-52
2022/03/04 06:53:45;;;;;;;49.43;24.17;;;1.60;99.90;;;;;;4175304;28;20340;-52
2022/03/04 06:55:47;;;;;;;45.93;22.70;;;1.60;99.90;;;;;;4176922;28;20613;-50
2022/03/04 06:57:51;;;;;;;45.20;22.83;;;1.70;99.90;;;;;;4176190;28;20278;-58
2022/03/04 06:59:52;;;;;;;45.93;21.57;;;1.70;99.90;;;;;;4176181;28;20754;-70
2022/03/04 07:01:53;;;;;;;38.70;20.40;;;1.70;99.90;;;;;;4158210;28;20344;-51
2022/03/04 07:03:54;;;;;;;36.63;20.20;;;1.60;99.90;;;;;;4175942;28;20262;-73
2022/03/04 07:05:55;;;;;;;43.40;22.00;;;1.70;99.90;;;;;;4177252;28;20335;-46
2022/03/04 07:07:57;;;;;;;43.70;22.00;;;1.70;99.90;;;;;;4175817;28;20789;-67
2022/03/04 07:09:58;;;;;;;40.23;21.33;;;1.70;99.90;;;;;;4176443;28;20744;-56
2022/03/04 07:11:59;;;;;;;44.10;22.33;;;1.70;99.90;;;;;;4158056;28;20321;-69
2022/03/04 07:14:00;;;;;;;48.90;25.97;;;1.70;99.90;;;;;;4177342;28;20596;-86
2022/03/04 07:16:03;;;;;;;44.70;22.50;;;1.70;99.90;;;;;;4176416;28;20348;-72
2022/03/04 07:18:04;;;;;;;42.17;22.17;;;1.80;99.90;;;;;;4176760;28;20282;-68
2022/03/04 07:20:07;;;;;;;52.43;23.73;;;1.80;99.90;;;;;;4162043;28;20428;-76
2022/03/04 07:22:08;;;;;;;45.90;21.17;;;1.80;99.90;;;;;;4160443;28;20283;-69
2022/03/04 07:24:09;;;;;;;44.53;22.23;;;1.80;99.90;;;;;;4159603;28;20402;-62
2022/03/04 07:26:12;;;;;;;43.80;21.63;;;1.90;99.90;;;;;;4142503;28;21266;-74
2022/03/04 07:28:13;;;;;;;41.53;21.43;;;1.90;99.90;;;;;;4302941;22;20669;-45
2022/03/04 07:30:16;;;;;;;42.53;21.13;;;2.00;99.90;;;;;;4171844;28;20271;-60
2022/03/04 07:32:17;;;;;;;36.33;19.70;;;2.00;99.90;;;;;;4175328;28;20270;-68
2022/03/04 07:34:19;;;;;;;46.87;22.87;;;2.00;99.90;;;;;;4181187;28;20311;-64
2022/03/04 07:36:20;;;;;;;44.03;22.50;;;2.10;99.90;;;;;;4190682;28;20269;-53
2022/03/04 07:38:21;;;;;;;38.87;21.40;;;2.10;99.90;;;;;;4166297;28;20668;-67
2022/03/04 07:40:22;;;;;;;49.33;22.87;;;2.10;99.90;;;;;;4162224;28;20286;-77
2022/03/04 07:42:23;;;;;;;45.70;21.23;;;2.10;99.90;;;;;;4175576;28;20294;-82
2022/03/04 07:44:24;;;;;;;43.63;21.37;;;2.10;99.90;;;;;;4158750;28;20337;-58
2022/03/04 07:46:26;;;;;;;47.97;20.50;;;2.00;99.90;;;;;;4173355;28;20499;-60
2022/03/04 07:48:27;;;;;;;39.90;19.20;;;2.10;99.90;;;;;;4173289;28;20304;-71
2022/03/04 07:50:28;;;;;;;38.30;21.77;;;2.10;99.90;;;;;;4173340;28;20339;-56
2022/03/04 07:52:31;;;;;;;45.20;21.50;;;2.20;99.90;;;;;;4168264;28;20308;-75
2022/03/04 07:54:32;;;;;;;43.83;22.07;;;2.20;99.90;;;;;;4167907;28;20278;-69
2022/03/04 07:56:34;;;;;;;37.20;21.43;;;2.20;99.90;;;;;;4170067;28;20332;-52
2022/03/04 07:58:35;;;;;;;39.70;19.53;;;2.10;99.90;;;;;;4158692;28;20312;-72
2022/03/04 08:00:36;;;;;;;39.53;20.87;;;2.00;99.90;;;;;;4159692;28;20271;-79
2022/03/04 08:02:40;;;;;;;35.27;18.93;;;2.00;99.90;;;;;;4192964;22;20845;-72
2022/03/04 08:04:42;;;;;;;32.63;16.80;;;2.00;99.90;;;;;;4169168;28;20681;-75
2022/03/04 08:06:43;;;;;;;33.90;18.53;;;2.00;99.90;;;;;;4174238;28;20287;-58
2022/03/04 08:08:46;;;;;;;32.33;18.30;;;2.00;99.90;;;;;;4175305;28;20270;-67
2022/03/04 08:10:47;;;;;;;36.13;18.20;;;2.10;99.90;;;;;;4174364;28;20343;-69
2022/03/04 08:12:48;;;;;;;39.53;18.47;;;2.00;99.90;;;;;;4175516;28;20316;-65
2022/03/04 08:14:49;;;;;;;38.00;18.50;;;2.10;99.90;;;;;;4175215;28;20269;-84
2022/03/04 08:16:50;;;;;;;41.77;20.03;;;2.20;99.90;;;;;;4175390;28;20290;-80
2022/03/04 08:18:52;;;;;;;42.13;18.17;;;2.30;99.90;;;;;;4174394;28;20674;-82
2022/03/04 08:20:53;;;;;;;35.37;17.00;;;2.30;99.90;;;;;;4176031;28;20274;-65
2022/03/04 08:22:54;;;;;;;35.70;19.23;;;2.30;99.90;;;;;;4175192;28;20286;-67
2022/03/04 08:24:56;;;;;;;43.23;20.07;;;2.30;99.90;;;;;;4176237;28;20282;-67
2022/03/04 08:26:57;;;;;;;40.40;21.23;;;2.30;99.90;;;;;;4174800;28;20274;-72
2022/03/04 08:28:58;;;;;;;50.03;24.40;;;2.30;99.90;;;;;;4176548;28;20761;-61
2022/03/04 08:31:00;;;;;;;47.07;23.27;;;2.30;99.90;;;;;;4175716;28;20355;-69
2022/03/04 08:33:01;;;;;;;47.57;25.70;;;2.20;99.90;;;;;;4177159;28;20858;-69
2022/03/04 08:35:03;;;;;;;56.70;28.03;;;2.00;99.90;;;;;;4175280;28;20273;-72
2022/03/04 08:37:04;;;;;;;63.43;28.07;;;2.00;99.90;;;;;;4173694;28;20351;-68
2022/03/04 08:39:07;;;;;;;57.63;28.07;;;1.90;99.90;;;;;;4174034;28;20255;-69
2022/03/04 08:41:08;;;;;;;57.77;28.30;;;1.90;99.90;;;;;;4158933;28;20309;-59
2022/03/04 08:43:09;;;;;;;58.17;30.67;;;1.90;99.90;;;;;;4178038;28;20328;-76
2022/03/04 08:45:13;;;;;;;55.67;28.20;;;1.90;99.90;;;;;;4178185;28;20312;-79
2022/03/04 08:47:14;;;;;;;58.33;30.83;;;1.80;99.90;;;;;;4180403;28;20266;-63
2022/03/04 08:49:18;;;;;;;53.80;27.97;;;1.80;99.90;;;;;;4194461;28;20308;-78
2022/03/04 08:51:24;;;;;;;55.70;26.63;;;1.90;99.90;;;;;;4193179;28;20326;-69
2022/03/04 08:53:27;;;;;;;52.13;27.00;;;1.80;99.90;;;;;;4193730;28;20277;-83
2022/03/04 08:55:30;;;;;;;49.77;24.63;;;1.90;99.90;;;;;;4195257;28;20269;-80
2022/03/04 08:57:31;;;;;;;45.47;25.27;;;1.90;99.90;;;;;;4194403;28;20335;-77
2022/03/04 08:59:33;;;;;;;45.30;25.30;;;1.80;99.90;;;;;;4194510;28;20765;-80
2022/03/04 09:01:35;;;;;;;47.77;23.87;;;1.90;99.90;;;;;;4183116;28;20278;-77
2022/03/04 09:03:36;;;;;;;49.33;23.80;;;2.00;99.90;;;;;;4175157;28;20355;-74
2022/03/04 09:05:37;;;;;;;49.97;24.07;;;2.10;99.90;;;;;;4174414;28;20677;-69
2022/03/04 09:07:38;;;;;;;48.70;23.90;;;2.10;99.90;;;;;;4174824;28;20273;-91
2022/03/04 09:09:39;;;;;;;44.13;23.93;;;2.20;99.90;;;;;;4174906;28;20391;-71
2022/03/04 09:11:41;;;;;;;44.33;24.30;;;2.30;99.90;;;;;;4174380;28;20270;-63
2022/03/04 09:13:42;;;;;;;44.30;22.90;;;2.40;99.90;;;;;;4174262;28;20344;-71
2022/03/04 09:15:44;;;;;;;49.03;25.00;;;2.40;99.90;;;;;;4175229;28;20351;-92
2022/03/04 09:17:45;;;;;;;47.10;25.20;;;2.40;99.90;;;;;;4176015;28;20324;-92
2022/03/04 09:19:46;;;;;;;43.07;22.80;;;2.40;99.90;;;;;;4173652;28;20269;-66
2022/03/04 09:21:47;;;;;;;49.60;25.43;;;2.30;99.90;;;;;;4176111;28;20274;-64
2022/03/04 09:23:49;;;;;;;47.27;23.77;;;2.40;99.90;;;;;;4163801;28;20294;-84
2022/03/04 09:25:52;;;;;;;41.67;22.83;;;2.40;99.90;;;;;;4160453;28;20267;-77
2022/03/04 09:27:53;;;;;;;43.40;21.93;;;2.40;99.90;;;;;;4140129;28;20365;-64
2022/03/04 09:29:54;;;;;;;41.67;21.03;;;2.40;99.90;;;;;;4157740;28;20283;-76
2022/03/04 09:31:55;;;;;;;41.07;21.30;;;2.30;99.90;;;;;;4155661;28;20658;-66
2022/03/04 09:33:57;;;;;;;41.00;21.07;;;2.30;99.90;;;;;;4173359;28;21068;-59
2022/03/04 09:36:00;;;;;;;37.27;21.67;;;2.30;99.90;;;;;;4174393;28;20282;-63
2022/03/04 09:38:02;;;;;;;43.83;21.20;;;2.40;99.90;;;;;;4164287;28;20787;-66
2022/03/04 09:40:04;;;;;;;50.93;25.33;;;2.30;99.90;;;;;;4155513;28;20748;-63
2022/03/04 09:42:07;;;;;;;51.03;26.37;;;2.40;99.90;;;;;;4174747;28;20312;-58
2022/03/04 09:44:09;;;;;;;51.37;25.63;;;2.50;99.90;;;;;;4174486;28;20781;-67
2022/03/04 09:46:10;;;;;;;49.53;25.53;;;2.50;99.90;;;;;;4181178;28;20660;-67
2022/03/04 09:48:13;;;;;;;43.23;23.17;;;2.60;99.90;;;;;;4175742;28;20269;-63
2022/03/04 09:50:16;;;;;;;41.53;21.97;;;2.60;99.90;;;;;;4156312;28;20786;-89
2022/03/04 09:52:18;;;;;;;41.63;21.67;;;2.60;99.90;;;;;;4161598;28;20355;-78
2022/03/04 09:54:19;;;;;;;47.30;24.97;;;2.60;99.90;;;;;;4174641;28;20269;-75
2022/03/04 09:56:20;;;;;;;45.60;25.10;;;2.60;99.90;;;;;;4180058;28;20270;-92
2022/03/04 09:58:21;;;;;;;49.47;24.37;;;2.60;99.90;;;;;;4205749;22;20363;-71
2022/03/04 10:00:23;;;;;;;42.97;24.63;;;2.70;99.90;;;;;;4384609;22;20350;-50
2022/03/04 10:02:25;;;;;;;47.57;23.13;;;2.80;99.90;;;;;;4193415;28;20269;-87
2022/03/04 10:04:28;;;;;;;44.50;23.00;;;2.90;99.90;;;;;;4196162;28;20676;-47
2022/03/04 10:06:29;;;;;;;46.37;23.17;;;3.00;99.90;;;;;;4193713;28;20913;-55
2022/03/04 10:08:37;;;;;;;46.57;23.87;;;2.90;99.90;;;;;;4194303;28;20273;-53
2022/03/04 10:10:48;;;;;;;45.77;23.10;;;3.00;99.90;;;;;;4194880;28;20299;-91
2022/03/04 10:12:57;;;;;;;44.17;23.17;;;3.00;99.90;;;;;;4192998;28;20269;-83
2022/03/04 10:15:06;;;;;;;43.33;21.77;;;3.10;99.90;;;;;;4194948;28;20269;-74
2022/03/04 10:17:14;;;;;;;40.87;21.87;;;3.20;99.90;;;;;;4182498;28;20336;-75
2022/03/04 10:19:17;;;;;;;40.20;20.53;;;3.20;99.90;;;;;;4181314;28;20356;-63
2022/03/04 10:21:19;;;;;;;42.60;21.17;;;3.30;99.90;;;;;;4190958;28;20339;-75
2022/03/04 10:23:26;;;;;;;43.80;20.77;;;3.40;99.90;;;;;;4192269;28;20293;-62
2022/03/04 10:25:29;;;;;;;39.63;18.27;;;3.40;99.90;;;;;;4184289;28;20342;-69
2022/03/04 10:27:34;;;;;;;36.80;19.33;;;3.50;99.90;;;;;;4175930;28;20278;-52
2022/03/04 10:29:41;;;;;;;36.87;19.07;;;3.60;99.90;;;;;;4178281;28;20258;-80
2022/03/04 10:32:09;;;;;;;35.93;17.53;;;3.80;99.90;;;;;;4190472;28;20281;-78
2022/03/04 10:34:11;;;;;;;33.53;17.57;;;3.90;99.90;;;;;;4186450;28;20422;-69